Regional Weather

 

KCRX - Corinth, Mississippi, USA
Distance from station: SW 29mi, 47km
Updated: Wed, 12-May-2021 2:15am CDT
Overcast
Overcast
 Wind from NE
Wind: NE 8 mph , 13 km/h
Temperature: 55°F , 13°C
Dew Point: 50°F , 10°C
Humidity: 82%
Barometer: 30.12 inHg , 1020 hPa
Clouds: Overcast
Visibility: 10 miles , 16 km
Cloud details: Few Clouds 4800 ft
Overcast 8500 ft
2021/05/12 07:15 KCRX 120715Z AUTO 04007KT 10SM FEW048 OVC085 13/10 A3012 RMK AO2
KMKL - Jackson, Tennessee, USA
Distance from station: NW 46mi, 73km
Updated: Wed, 12-May-2021 1:53am CDT
Overcast
Overcast
 Wind from NE
Wind: NE 9 mph , 15 km/h
Temperature: 55°F , 13°C
Dew Point: 52°F , 11°C
Humidity: 88%
Barometer: 30.17 inHg , 1021.7 hPa
Clouds: Overcast
Visibility: 10 miles , 16 km
Cloud details: Overcast 5000 ft
2021/05/12 06:53 KMKL 120653Z AUTO 05008KT 10SM OVC050 13/11 A3017 RMK AO2 SLP213 T01330106
 
KMSL - Muscle Shoal, Alabama, USA
Distance from station: SE 49mi, 79km
Updated: Wed, 12-May-2021 1:53am CDT
Mostly cloudy
Mostly cloudy
 Wind from ENE
Wind: ENE 9 mph , 15 km/h
Temperature: 57°F , 14°C
Dew Point: 48°F , 9°C
Humidity: 72%
Barometer: 30.07 inHg , 1018.3 hPa
Clouds: Mostly cloudy
Visibility: 10 miles , 16 km
Cloud details: Mostly cloudy 11000 ft
2021/05/12 06:53 KMSL 120653Z AUTO 07008KT 10SM BKN110 14/09 A3007 RMK AO2 RAE39 SLP178 P0002 T01440089 TSNO $
KTUP - Tupelo, Mississippi, USA
Distance from station: SSW 72mi, 117km
Updated: Wed, 12-May-2021 1:53am CDT
Light rain, Mostly cloudy
Light rain, Mostly cloudy
 Wind from NNW
Wind: NNW 13 mph , 20 km/h
Temperature: 57°F , 14°C
Dew Point: 54°F , 12°C
Humidity: 88%
Barometer: 30.13 inHg , 1020.3 hPa
Summary: Light rain
Clouds: Mostly cloudy
Visibility: 10 miles , 16 km
Cloud details: Few Clouds 2400 ft
Partly cloudy 4400 ft
Mostly cloudy 8000 ft
2021/05/12 06:53 KTUP 120653Z AUTO 33011KT 10SM -RA FEW024 SCT044 BKN080 14/12 A3013 RMK AO2 RAB0558 PRESRR SLP200 P0001 T01440122
 
KHSV - Huntsville, Alabama, USA
Distance from station: ESE 92mi, 148km
Updated: Wed, 12-May-2021 1:53am CDT
Light rain, Overcast
Light rain, Overcast
 Wind from NE
Wind: NE 7 mph , 11 km/h
Temperature: 57°F , 14°C
Dew Point: 54°F , 12°C
Humidity: 88%
Barometer: 30.10 inHg , 1019.3 hPa
Summary: Light rain
Clouds: Overcast
Visibility: 10 miles , 16 km
Cloud details: Few Clouds 4900 ft
Mostly cloudy 6500 ft
Overcast 10000 ft
2021/05/12 06:53 KHSV 120653Z AUTO 04006KT 10SM -RA FEW049 BKN065 OVC100 14/12 A3010 RMK AO2 SLP188 P0002 T01390117
KBNA - Nashville, TN, USA
Distance from station: NE 97mi, 157km
Updated: Wed, 12-May-2021 1:53am CDT
Overcast
Overcast
 Wind from NE
Wind: NE 13 mph , 20 km/h, Gust: 22 mph , 35 km/h
Temperature: 55°F , 13°C
Dew Point: 43°F , 6°C
Humidity: 63%
Barometer: 30.18 inHg , 1022 hPa
Clouds: Overcast
Visibility: 10 miles , 16 km
Cloud details: Mostly cloudy 7000 ft
Overcast 10000 ft
2021/05/12 06:53 KBNA 120653Z 05011G19KT 10SM BKN070 OVC100 13/06 A3018 RMK AO2 RAB04E51 SLP216 P0001 T01280061
 
KMEM - Memphis, Tennessee, USA
Distance from station: W 99mi, 159km
Updated: Wed, 12-May-2021 1:54am CDT
Mostly cloudy
Mostly cloudy
 Wind from NE
Wind: NE 9 mph , 15 km/h
Temperature: 57°F , 14°C
Dew Point: 52°F , 11°C
Humidity: 82%
Barometer: 30.14 inHg , 1020.7 hPa
Clouds: Mostly cloudy
Visibility: 10 miles , 16 km
Cloud details: Mostly cloudy 4700 ft
2021/05/12 06:54 KMEM 120654Z 04008KT 10SM BKN047 14/11 A3014 RMK AO2 SLP205 T01390111 $
KCKV - Clarksville, TN, USA
Distance from station: NNE 99mi, 159km
Updated: Wed, 12-May-2021 1:52am CDT
Overcast
Overcast
 Wind from NE
Wind: NE 12 mph , 19 km/h, Gust: 23 mph , 37 km/h
Temperature: 55°F , 13°C
Dew Point: 36°F , 2°C
Humidity: 47%
Barometer: 30.22 inHg , 1023.4 hPa
Clouds: Overcast
Visibility: 10 miles , 16 km
Cloud details: Overcast 8000 ft
2021/05/12 06:52 KCKV 120652Z AUTO 04010G20KT 10SM OVC080 13/02 A3022 RMK AO2 SLP231 T01280022
 
KCHA - Chattanooga, TN, USA
Distance from station: E 165mi, 265km
Updated: Wed, 12-May-2021 1:53am CDT
Mostly cloudy
Mostly cloudy
 Wind from N
Wind: N 14 mph , 22 km/h
Temperature: 63°F , 17°C
Dew Point: 45°F , 7°C
Humidity: 52%
Barometer: 30.09 inHg , 1019 hPa
Clouds: Mostly cloudy
Visibility: 10 miles , 16 km
Cloud details: Mostly cloudy 6000 ft
2021/05/12 06:53 KCHA 120653Z AUTO 01012KT 10SM BKN060 17/07 A3009 RMK AO2 SLP184 T01720067
KTYS - Knoxville, TN, USA
Distance from station: E 234mi, 377km
Updated: Wed, 12-May-2021 1:53am CDT
Overcast
Overcast
 Wind from NNE
Wind: NNE 14 mph , 22 km/h
Temperature: 59°F , 15°C
Dew Point: 43°F , 6°C
Humidity: 55%
Barometer: 30.12 inHg , 1020 hPa
Clouds: Overcast
Visibility: 10 miles , 16 km
Cloud details: Mostly cloudy 7500 ft
Overcast 10000 ft
2021/05/12 06:53 KTYS 120653Z 02012KT 10SM BKN075 OVC100 15/06 A3012 RMK AO2 SLP195 T01500061

Refresh Page for latest data.